Time;durP1;ratioP1;P1;durP2;ratioP2;P2;SDS_P1;SDS_P2;PMS_P1;PMS_P2;Temp;Humidity;BMP_temperature;BMP_pressure;BME280_temperature;BME280_humidity;BME280_pressure;Samples;Min_cycle;Max_cycle;Signal;HPM_P1;HPM_P2
2021/11/21 00:02:07;;;;;;;20.13;11.33;;;;;;;;;;5031611;28;20697;-70
2021/11/21 00:04:33;;;;;;;21.33;12.07;;;;;;;;;;5031174;28;20260;-70
2021/11/21 00:07:01;;;;;;;18.23;11.23;;;;;;;;;;5031508;28;20211;-71
2021/11/21 00:09:28;;;;;;;19.93;12.97;;;;;;;;;;5030966;28;20218;-72
2021/11/21 00:11:54;;;;;;;22.90;13.00;;;;;;;;;;5031762;28;20595;-70
2021/11/21 00:14:20;;;;;;;22.20;13.00;;;;;;;;;;5030880;28;20270;-70
2021/11/21 00:16:47;;;;;;;24.13;12.77;;;;;;;;;;5032560;28;20242;-71
2021/11/21 00:19:13;;;;;;;21.10;13.00;;;;;;;;;;5030382;28;20233;-71
2021/11/21 00:21:40;;;;;;;23.07;14.13;;;;;;;;;;5031455;28;20232;-70
2021/11/21 00:24:07;;;;;;;24.43;14.27;;;;;;;;;;5030425;28;20205;-70
2021/11/21 00:26:34;;;;;;;24.67;12.97;;;;;;;;;;5031995;28;20210;-70
2021/11/21 00:29:00;;;;;;;22.77;13.53;;;;;;;;;;5032134;28;20212;-70
2021/11/21 00:31:27;;;;;;;26.77;14.67;;;;;;;;;;5030955;28;20205;-70
2021/11/21 00:33:53;;;;;;;22.03;13.83;;;;;;;;;;5029933;28;20280;-70
2021/11/21 00:36:19;;;;;;;21.97;14.57;;;;;;;;;;5032479;28;20221;-70
2021/11/21 00:38:46;;;;;;;25.70;14.53;;;;;;;;;;5031246;28;20224;-70
2021/11/21 00:41:13;;;;;;;22.67;14.73;;;;;;;;;;5036682;28;20231;-70
2021/11/21 00:43:40;;;;;;;19.53;13.07;;;;;;;;;;5035246;28;20769;-70
2021/11/21 00:46:07;;;;;;;21.07;14.63;;;;;;;;;;5034966;28;20218;-70
2021/11/21 00:48:37;;;;;;;26.33;14.07;;;;;;;;;;5034924;28;20271;-70
2021/11/21 00:51:03;;;;;;;26.57;14.30;;;;;;;;;;5033376;28;20219;-70
2021/11/21 00:53:31;;;;;;;20.33;14.40;;;;;;;;;;5032180;28;20734;-70
2021/11/21 00:56:02;;;;;;;21.73;14.50;;;;;;;;;;5035576;28;20299;-70
2021/11/21 00:58:31;;;;;;;21.73;13.97;;;;;;;;;;5033170;28;20221;-70
2021/11/21 01:00:58;;;;;;;25.20;15.07;;;;;;;;;;5034507;28;20282;-70
2021/11/21 01:03:26;;;;;;;20.43;13.63;;;;;;;;;;5034640;28;20768;-70
2021/11/21 01:05:54;;;;;;;18.83;13.60;;;;;;;;;;5036792;28;20756;-70
2021/11/21 01:08:20;;;;;;;21.23;14.27;;;;;;;;;;5035541;28;20234;-70
2021/11/21 01:10:49;;;;;;;23.87;13.87;;;;;;;;;;5034596;28;20663;-69
2021/11/21 01:13:16;;;;;;;21.00;14.30;;;;;;;;;;5033262;28;20226;-70
2021/11/21 01:15:44;;;;;;;25.60;14.90;;;;;;;;;;5032938;28;20208;-69
2021/11/21 01:18:11;;;;;;;22.53;14.80;;;;;;;;;;5034322;28;20254;-70
2021/11/21 01:20:41;;;;;;;22.70;14.93;;;;;;;;;;5035192;28;20228;-69
2021/11/21 01:23:09;;;;;;;21.57;14.00;;;;;;;;;;5034022;28;20228;-70
2021/11/21 01:25:36;;;;;;;29.67;16.07;;;;;;;;;;5033208;28;20211;-70
2021/11/21 01:28:03;;;;;;;24.77;15.60;;;;;;;;;;5034233;28;20217;-70
2021/11/21 01:30:31;;;;;;;21.70;14.23;;;;;;;;;;5032905;28;20217;-70
2021/11/21 01:33:01;;;;;;;25.10;15.30;;;;;;;;;;5035300;28;20233;-70
2021/11/21 01:35:28;;;;;;;28.23;15.77;;;;;;;;;;5033938;28;20205;-70
2021/11/21 01:37:55;;;;;;;25.53;14.47;;;;;;;;;;5034485;28;20367;-70
2021/11/21 01:40:23;;;;;;;21.93;14.67;;;;;;;;;;5034512;28;20212;-70
2021/11/21 01:42:51;;;;;;;22.87;15.13;;;;;;;;;;5034388;28;21006;-70
2021/11/21 01:45:18;;;;;;;24.23;15.07;;;;;;;;;;5034023;28;20765;-70
2021/11/21 01:47:46;;;;;;;22.37;14.87;;;;;;;;;;5032811;28;20228;-70
2021/11/21 01:50:17;;;;;;;24.33;15.60;;;;;;;;;;5032956;28;20221;-70
2021/11/21 01:52:44;;;;;;;21.63;14.27;;;;;;;;;;5031731;28;20241;-69
2021/11/21 01:55:10;;;;;;;26.50;16.60;;;;;;;;;;5032227;28;20303;-70
2021/11/21 01:57:38;;;;;;;25.40;15.30;;;;;;;;;;5032702;28;20216;-70
2021/11/21 02:00:06;;;;;;;29.47;17.00;;;;;;;;;;5034620;28;20317;-70
2021/11/21 02:02:33;;;;;;;33.13;16.77;;;;;;;;;;5031181;28;20282;-70
2021/11/21 02:04:59;;;;;;;27.07;15.73;;;;;;;;;;5032853;28;20246;-70
2021/11/21 02:07:29;;;;;;;28.77;16.53;;;;;;;;;;5033412;28;20267;-70
2021/11/21 02:09:56;;;;;;;26.50;16.37;;;;;;;;;;5033942;28;20216;-70
2021/11/21 02:12:22;;;;;;;34.93;18.23;;;;;;;;;;5032730;28;20509;-70
2021/11/21 02:14:49;;;;;;;31.10;18.20;;;;;;;;;;5031388;28;20221;-70
2021/11/21 02:17:15;;;;;;;31.13;17.97;;;;;;;;;;5030786;28;20225;-70
2021/11/21 02:19:42;;;;;;;31.30;17.50;;;;;;;;;;5032162;28;20261;-70
2021/11/21 02:22:10;;;;;;;36.10;19.10;;;;;;;;;;5033106;28;20688;-70
2021/11/21 02:24:37;;;;;;;36.47;18.90;;;;;;;;;;5032583;28;20258;-70
2021/11/21 02:27:04;;;;;;;31.07;17.87;;;;;;;;;;5033816;28;20272;-70
2021/11/21 02:29:30;;;;;;;35.90;19.57;;;;;;;;;;5032876;28;20214;-70
2021/11/21 02:31:56;;;;;;;29.43;17.73;;;;;;;;;;5032089;28;20772;-70
2021/11/21 02:34:23;;;;;;;29.50;18.20;;;;;;;;;;5032237;28;20742;-70
2021/11/21 02:36:51;;;;;;;30.53;15.83;;;;;;;;;;5032608;28;20211;-70
2021/11/21 02:39:18;;;;;;;28.87;18.77;;;;;;;;;;5033821;28;20219;-70
2021/11/21 02:41:45;;;;;;;34.60;18.17;;;;;;;;;;5030221;28;20228;-70
2021/11/21 02:44:11;;;;;;;33.27;19.90;;;;;;;;;;5033654;28;20234;-70
2021/11/21 02:46:38;;;;;;;36.27;20.90;;;;;;;;;;5032767;28;20270;-71
2021/11/21 02:49:04;;;;;;;32.43;19.13;;;;;;;;;;5032263;28;20279;-70
2021/11/21 02:51:31;;;;;;;34.90;19.73;;;;;;;;;;5032972;28;20277;-70
2021/11/21 02:53:57;;;;;;;27.43;17.20;;;;;;;;;;5032612;28;20653;-71
2021/11/21 02:56:27;;;;;;;22.03;13.57;;;;;;;;;;5030204;28;20218;-70
2021/11/21 02:58:53;;;;;;;17.47;12.53;;;;;;;;;;5030071;28;20219;-71
2021/11/21 03:01:23;;;;;;;23.47;14.47;;;;;;;;;;5032265;28;20242;-70
2021/11/21 03:03:51;;;;;;;20.07;13.00;;;;;;;;;;5031493;28;20317;-70
2021/11/21 03:06:17;;;;;;;17.83;12.63;;;;;;;;;;5031223;28;20298;-70
2021/11/21 03:08:44;;;;;;;17.20;11.23;;;;;;;;;;5031276;28;20267;-70
2021/11/21 03:11:28;;;;;;;13.63;10.63;;;;;;;;;;5031847;28;20209;-70
2021/11/21 03:13:54;;;;;;;17.43;11.83;;;;;;;;;;5032504;28;20217;-71
2021/11/21 03:16:21;;;;;;;14.63;9.40;;;;;;;;;;5031314;28;20213;-70
2021/11/21 03:18:47;;;;;;;17.00;10.33;;;;;;;;;;5030461;28;20344;-71
2021/11/21 03:21:14;;;;;;;13.67;9.57;;;;;;;;;;5032151;28;20645;-71
2021/11/21 03:23:41;;;;;;;13.63;8.87;;;;;;;;;;5031701;28;20749;-71
2021/11/21 03:26:07;;;;;;;12.50;7.03;;;;;;;;;;5032736;28;20217;-71
2021/11/21 03:28:35;;;;;;;8.00;5.80;;;;;;;;;;5029569;28;20210;-71
2021/11/21 03:31:02;;;;;;;7.03;3.83;;;;;;;;;;5032722;28;20614;-71
2021/11/21 03:33:28;;;;;;;5.37;2.80;;;;;;;;;;5031696;28;20262;-71
2021/11/21 03:35:55;;;;;;;5.20;2.73;;;;;;;;;;5033901;28;20235;-71
2021/11/21 03:38:21;;;;;;;6.67;2.43;;;;;;;;;;5032688;28;20283;-71
2021/11/21 03:40:48;;;;;;;8.53;2.80;;;;;;;;;;5031583;28;20222;-72
2021/11/21 03:43:14;;;;;;;5.53;3.07;;;;;;;;;;5031200;28;20208;-71
2021/11/21 03:45:42;;;;;;;9.13;2.60;;;;;;;;;;5031349;28;20213;-71
2021/11/21 03:48:08;;;;;;;6.73;1.97;;;;;;;;;;5031357;28;20240;-71
2021/11/21 03:50:35;;;;;;;6.17;1.40;;;;;;;;;;5031133;28;20786;-72
2021/11/21 03:53:02;;;;;;;4.00;1.37;;;;;;;;;;5031567;28;20228;-71
2021/11/21 03:55:28;;;;;;;5.93;1.40;;;;;;;;;;5032128;28;20216;-71
2021/11/21 03:57:55;;;;;;;7.83;0.90;;;;;;;;;;5031501;28;20625;-71
2021/11/21 04:00:24;;;;;;;4.37;1.30;;;;;;;;;;5029881;28;20215;-71
2021/11/21 04:02:53;;;;;;;4.27;0.80;;;;;;;;;;5031376;28;20251;-71
2021/11/21 04:05:20;;;;;;;5.00;0.83;;;;;;;;;;5030760;28;20215;-71
2021/11/21 04:07:47;;;;;;;4.20;0.87;;;;;;;;;;5031564;28;20214;-71
2021/11/21 04:10:14;;;;;;;4.20;0.90;;;;;;;;;;5032063;28;20293;-71
2021/11/21 04:12:41;;;;;;;3.07;0.87;;;;;;;;;;5029708;28;20235;-71
2021/11/21 04:15:09;;;;;;;7.07;1.30;;;;;;;;;;5034766;28;20212;-71
2021/11/21 04:17:37;;;;;;;5.83;1.17;;;;;;;;;;5033885;28;20223;-71
2021/11/21 04:20:06;;;;;;;10.43;1.27;;;;;;;;;;5034118;28;20210;-72
2021/11/21 04:22:33;;;;;;;10.63;1.40;;;;;;;;;;5035580;28;20233;-71
2021/11/21 04:24:59;;;;;;;5.63;1.13;;;;;;;;;;5037741;28;20703;-71
2021/11/21 04:27:27;;;;;;;4.17;1.00;;;;;;;;;;5036941;28;20320;-71
2021/11/21 04:29:54;;;;;;;10.80;1.60;;;;;;;;;;5035077;28;20241;-71
2021/11/21 04:32:21;;;;;;;8.10;1.20;;;;;;;;;;5034768;28;20629;-71
2021/11/21 04:34:48;;;;;;;12.20;1.23;;;;;;;;;;5034355;28;20208;-72
2021/11/21 04:37:16;;;;;;;5.83;1.03;;;;;;;;;;5033894;28;20231;-71
2021/11/21 04:39:42;;;;;;;7.17;1.03;;;;;;;;;;5033455;28;20702;-71
2021/11/21 04:42:09;;;;;;;10.53;1.30;;;;;;;;;;5034603;28;20249;-71
2021/11/21 04:44:35;;;;;;;7.83;1.57;;;;;;;;;;5035168;28;20204;-71
2021/11/21 04:47:02;;;;;;;6.60;1.40;;;;;;;;;;5034956;28;20443;-71
2021/11/21 04:49:28;;;;;;;9.97;1.27;;;;;;;;;;5033668;28;20275;-71
2021/11/21 04:51:55;;;;;;;12.70;1.63;;;;;;;;;;5032444;28;20288;-72
2021/11/21 04:54:26;;;;;;;7.43;1.13;;;;;;;;;;5034713;28;20212;-71
2021/11/21 04:56:52;;;;;;;6.67;1.10;;;;;;;;;;5032794;28;20218;-71
2021/11/21 04:59:20;;;;;;;12.27;1.73;;;;;;;;;;5034377;28;20322;-71
2021/11/21 05:01:48;;;;;;;8.97;1.57;;;;;;;;;;5034111;28;20236;-71
2021/11/21 05:04:14;;;;;;;8.27;1.83;;;;;;;;;;5034010;28;20278;-71
2021/11/21 05:06:40;;;;;;;8.47;1.10;;;;;;;;;;5033426;28;20253;-71
2021/11/21 05:09:07;;;;;;;6.57;1.00;;;;;;;;;;5035935;28;20627;-71
2021/11/21 05:11:35;;;;;;;7.03;1.23;;;;;;;;;;5034791;28;20221;-71
2021/11/21 05:14:03;;;;;;;7.27;1.50;;;;;;;;;;5034129;28;20239;-71
2021/11/21 05:16:29;;;;;;;10.30;1.37;;;;;;;;;;5036866;28;20228;-70
2021/11/21 05:18:55;;;;;;;7.10;1.10;;;;;;;;;;5035713;28;20305;-70
2021/11/21 05:21:22;;;;;;;14.00;1.77;;;;;;;;;;5034390;28;20266;-71
2021/11/21 05:23:49;;;;;;;10.13;2.10;;;;;;;;;;5033705;28;20312;-71
2021/11/21 05:26:15;;;;;;;10.80;1.80;;;;;;;;;;5034865;28;20211;-70
2021/11/21 05:28:43;;;;;;;13.33;1.73;;;;;;;;;;5033201;28;20840;-71
2021/11/21 05:31:10;;;;;;;7.70;1.67;;;;;;;;;;5035276;28;20211;-74
2021/11/21 05:33:36;;;;;;;10.00;1.30;;;;;;;;;;5034239;28;20766;-73
2021/11/21 05:36:03;;;;;;;7.87;1.67;;;;;;;;;;5032594;28;20211;-74
2021/11/21 05:38:29;;;;;;;10.07;1.30;;;;;;;;;;5032731;28;20215;-74
2021/11/21 05:40:56;;;;;;;11.40;1.80;;;;;;;;;;5034052;28;20209;-74
2021/11/21 05:43:22;;;;;;;8.97;1.73;;;;;;;;;;5033144;28;20330;-74
2021/11/21 05:45:50;;;;;;;9.47;1.30;;;;;;;;;;5034262;28;20213;-74
2021/11/21 05:48:16;;;;;;;14.67;2.00;;;;;;;;;;5033132;28;20629;-74
2021/11/21 05:50:42;;;;;;;10.17;2.10;;;;;;;;;;5033941;28;20228;-74
2021/11/21 05:53:09;;;;;;;12.93;1.80;;;;;;;;;;5034809;28;20237;-74
2021/11/21 05:55:35;;;;;;;10.47;2.10;;;;;;;;;;5032322;28;20247;-74
2021/11/21 05:58:02;;;;;;;12.10;2.23;;;;;;;;;;5033340;28;20224;-74
2021/11/21 06:00:29;;;;;;;9.17;1.50;;;;;;;;;;5030501;28;20213;-73
2021/11/21 06:02:59;;;;;;;13.03;2.40;;;;;;;;;;5032287;28;20241;-74
2021/11/21 06:05:25;;;;;;;9.70;1.90;;;;;;;;;;5033668;28;20823;-73
2021/11/21 06:07:52;;;;;;;10.90;1.50;;;;;;;;;;5032991;28;20272;-73
2021/11/21 06:10:18;;;;;;;7.10;1.50;;;;;;;;;;5032055;28;20248;-73
2021/11/21 06:12:45;;;;;;;9.10;1.57;;;;;;;;;;5032752;28;20231;-73
2021/11/21 06:15:13;;;;;;;10.00;1.33;;;;;;;;;;5033457;28;20209;-73
2021/11/21 06:17:39;;;;;;;7.13;2.03;;;;;;;;;;5033098;28;20229;-73
2021/11/21 06:20:08;;;;;;;7.47;1.80;;;;;;;;;;5032548;28;20230;-74
2021/11/21 06:22:37;;;;;;;9.30;2.00;;;;;;;;;;5031098;28;20681;-73
2021/11/21 06:25:04;;;;;;;8.13;2.03;;;;;;;;;;5033753;28;20735;-74
2021/11/21 06:27:31;;;;;;;11.63;1.50;;;;;;;;;;5031913;28;20209;-73
2021/11/21 06:29:57;;;;;;;8.77;2.10;;;;;;;;;;5032181;28;20844;-73
2021/11/21 06:32:23;;;;;;;11.53;1.60;;;;;;;;;;5031073;28;20725;-74
2021/11/21 06:34:50;;;;;;;13.63;1.93;;;;;;;;;;5031350;28;20265;-73
2021/11/21 06:37:17;;;;;;;10.43;1.83;;;;;;;;;;5030436;28;20291;-74
2021/11/21 06:39:44;;;;;;;7.67;1.63;;;;;;;;;;5029816;28;20854;-74
2021/11/21 06:42:13;;;;;;;7.53;1.07;;;;;;;;;;5033007;28;20233;-74
2021/11/21 06:44:40;;;;;;;6.67;1.13;;;;;;;;;;5031332;28;20568;-74
2021/11/21 06:47:07;;;;;;;9.87;2.57;;;;;;;;;;5030325;28;20314;-74
2021/11/21 06:49:34;;;;;;;7.23;2.13;;;;;;;;;;5032453;28;20212;-74
2021/11/21 06:52:00;;;;;;;6.27;1.37;;;;;;;;;;5033408;28;20275;-74
2021/11/21 06:54:29;;;;;;;6.87;1.60;;;;;;;;;;5031430;28;20269;-74
2021/11/21 06:56:55;;;;;;;6.23;1.10;;;;;;;;;;5031472;28;20203;-74
2021/11/21 06:59:21;;;;;;;12.07;2.00;;;;;;;;;;5030455;28;20274;-74
2021/11/21 07:01:48;;;;;;;10.07;1.30;;;;;;;;;;5028896;28;20745;-75
2021/11/21 07:04:14;;;;;;;9.43;1.47;;;;;;;;;;5030488;28;20251;-74
2021/11/21 07:06:43;;;;;;;11.40;2.03;;;;;;;;;;5029110;28;20788;-74
2021/11/21 07:09:12;;;;;;;12.77;2.03;;;;;;;;;;5029948;28;20303;-74
2021/11/21 07:11:41;;;;;;;7.93;2.37;;;;;;;;;;5030003;28;20216;-74
2021/11/21 07:14:11;;;;;;;9.77;2.00;;;;;;;;;;5028313;28;20694;-74
2021/11/21 07:16:37;;;;;;;13.90;2.77;;;;;;;;;;5031111;28;20222;-75
2021/11/21 07:19:04;;;;;;;15.57;3.10;;;;;;;;;;5029479;28;20236;-74
2021/11/21 07:21:30;;;;;;;9.03;1.50;;;;;;;;;;5030550;28;20212;-74
2021/11/21 07:23:57;;;;;;;7.50;1.80;;;;;;;;;;5030144;28;20470;-74
2021/11/21 07:26:23;;;;;;;8.70;2.13;;;;;;;;;;5029159;28;20793;-74
2021/11/21 07:28:52;;;;;;;11.13;1.63;;;;;;;;;;5028870;28;20212;-75
2021/11/21 07:31:18;;;;;;;8.77;1.73;;;;;;;;;;5030861;28;20566;-75
2021/11/21 07:33:45;;;;;;;9.20;1.73;;;;;;;;;;5030098;28;20287;-75
2021/11/21 07:36:11;;;;;;;11.83;2.07;;;;;;;;;;5029931;28;20207;-75
2021/11/21 07:38:39;;;;;;;13.03;1.73;;;;;;;;;;5028324;28;20248;-75
2021/11/21 07:41:06;;;;;;;10.83;2.37;;;;;;;;;;5029939;28;20216;-75
2021/11/21 07:43:32;;;;;;;10.60;2.47;;;;;;;;;;5029932;28;20234;-74
2021/11/21 07:46:00;;;;;;;10.67;1.77;;;;;;;;;;5030217;28;20209;-75
2021/11/21 07:48:27;;;;;;;11.40;1.77;;;;;;;;;;5029989;28;20641;-75
2021/11/21 07:50:54;;;;;;;8.73;1.90;;;;;;;;;;5036224;28;20230;-74
2021/11/21 07:53:20;;;;;;;10.70;2.27;;;;;;;;;;5034968;28;20626;-75
2021/11/21 07:55:47;;;;;;;8.17;1.93;;;;;;;;;;5033877;28;20278;-75
2021/11/21 07:58:13;;;;;;;11.33;1.90;;;;;;;;;;5034479;28;20633;-74
2021/11/21 08:00:40;;;;;;;13.17;2.10;;;;;;;;;;5034018;28;20230;-77
2021/11/21 08:03:08;;;;;;;11.33;2.27;;;;;;;;;;5037313;28;20236;-74
2021/11/21 08:05:34;;;;;;;15.23;2.67;;;;;;;;;;5036993;28;20627;-75
2021/11/21 08:08:01;;;;;;;11.57;2.60;;;;;;;;;;5036452;28;20220;-75
2021/11/21 08:10:27;;;;;;;8.10;2.00;;;;;;;;;;5036980;28;20216;-75
2021/11/21 08:12:54;;;;;;;9.60;1.70;;;;;;;;;;5038409;28;20751;-75
2021/11/21 08:15:20;;;;;;;8.07;1.67;;;;;;;;;;5036620;28;20288;-75
2021/11/21 08:17:46;;;;;;;12.00;1.53;;;;;;;;;;5034742;28;20224;-77
2021/11/21 08:20:15;;;;;;;13.57;2.13;;;;;;;;;;5036392;28;20901;-75
2021/11/21 08:22:42;;;;;;;8.13;1.50;;;;;;;;;;5036862;28;20319;-77
2021/11/21 08:25:10;;;;;;;10.40;2.00;;;;;;;;;;5035412;28;20217;-75
2021/11/21 08:27:37;;;;;;;9.00;1.30;;;;;;;;;;5036839;28;20685;-77
2021/11/21 08:30:05;;;;;;;9.50;1.70;;;;;;;;;;5035333;28;20981;-77
2021/11/21 08:32:32;;;;;;;8.63;1.63;;;;;;;;;;5035390;28;20240;-77
2021/11/21 08:34:59;;;;;;;11.93;2.00;;;;;;;;;;5036232;28;20811;-75
2021/11/21 08:37:26;;;;;;;7.77;1.10;;;;;;;;;;5034750;28;20316;-77
2021/11/21 08:39:53;;;;;;;12.77;1.97;;;;;;;;;;5037285;28;20655;-76
2021/11/21 08:42:20;;;;;;;10.20;1.60;;;;;;;;;;5036195;28;20307;-75
2021/11/21 08:44:46;;;;;;;8.07;1.47;;;;;;;;;;5036676;28;20340;-76
2021/11/21 08:47:15;;;;;;;10.83;1.83;;;;;;;;;;5034617;28;20222;-75
2021/11/21 08:49:41;;;;;;;9.10;1.20;;;;;;;;;;5036951;28;20216;-75
2021/11/21 08:52:09;;;;;;;6.70;1.47;;;;;;;;;;5035508;28;20244;-75
2021/11/21 08:54:38;;;;;;;10.43;2.23;;;;;;;;;;5035786;28;20217;-75
2021/11/21 08:57:05;;;;;;;8.40;1.90;;;;;;;;;;5036308;28;20208;-75
2021/11/21 08:59:32;;;;;;;10.80;1.93;;;;;;;;;;5034081;28;20306;-76
2021/11/21 09:01:58;;;;;;;9.53;1.80;;;;;;;;;;5030236;28;20274;-75
2021/11/21 09:04:24;;;;;;;9.13;1.60;;;;;;;;;;5032721;28;20973;-76
2021/11/21 09:06:51;;;;;;;9.53;2.63;;;;;;;;;;5030351;28;20216;-76
2021/11/21 09:09:17;;;;;;;9.40;2.03;;;;;;;;;;5030805;28;20223;-75
2021/11/21 09:11:45;;;;;;;5.53;1.50;;;;;;;;;;5029585;28;20220;-75
2021/11/21 09:14:14;;;;;;;9.57;2.00;;;;;;;;;;5031498;28;20305;-76
2021/11/21 09:16:40;;;;;;;8.80;1.53;;;;;;;;;;5032939;28;20208;-75
2021/11/21 09:19:07;;;;;;;6.10;1.37;;;;;;;;;;5031612;28;20244;-75
2021/11/21 09:21:33;;;;;;;7.73;1.33;;;;;;;;;;5032191;28;20208;-75
2021/11/21 09:24:00;;;;;;;9.53;2.53;;;;;;;;;;5031436;28;20236;-76
2021/11/21 09:26:26;;;;;;;13.37;2.70;;;;;;;;;;5031107;28;20430;-75
2021/11/21 09:28:54;;;;;;;7.67;1.67;;;;;;;;;;5031829;28;20218;-75
2021/11/21 09:31:21;;;;;;;6.17;1.40;;;;;;;;;;5033512;28;20207;-75
2021/11/21 09:33:47;;;;;;;5.67;1.40;;;;;;;;;;5032146;28;20225;-75
2021/11/21 09:36:14;;;;;;;8.83;1.33;;;;;;;;;;5033209;28;20221;-75
2021/11/21 09:38:40;;;;;;;8.13;1.83;;;;;;;;;;5031531;28;20218;-76
2021/11/21 09:41:07;;;;;;;7.77;1.40;;;;;;;;;;5031328;28;20607;-75
2021/11/21 09:43:34;;;;;;;8.57;1.70;;;;;;;;;;5032081;28;20750;-74
2021/11/21 09:46:02;;;;;;;7.87;1.40;;;;;;;;;;5029857;28;20633;-74
2021/11/21 09:48:30;;;;;;;8.90;1.13;;;;;;;;;;5030914;28;20767;-74
2021/11/21 09:50:57;;;;;;;9.13;1.93;;;;;;;;;;5032579;28;20318;-74
2021/11/21 09:53:24;;;;;;;7.63;1.30;;;;;;;;;;5030614;28;20672;-73
2021/11/21 09:55:51;;;;;;;7.10;1.30;;;;;;;;;;5030723;28;20220;-73
2021/11/21 09:58:17;;;;;;;6.80;1.47;;;;;;;;;;5031685;28;20220;-73
2021/11/21 10:00:44;;;;;;;4.83;1.10;;;;;;;;;;5032240;28;20278;-73
2021/11/21 10:03:13;;;;;;;6.07;0.90;;;;;;;;;;5031840;28;20307;-73
2021/11/21 10:05:43;;;;;;;6.43;0.90;;;;;;;;;;5031362;28;20247;-73
2021/11/21 10:08:11;;;;;;;3.50;0.77;;;;;;;;;;5030731;28;20275;-73
2021/11/21 10:10:43;;;;;;;5.37;1.17;;;;;;;;;;5032337;28;20553;-73
2021/11/21 10:13:31;;;;;;;4.37;1.20;;;;;;;;;;5031024;28;20264;-72
2021/11/21 10:15:59;;;;;;;8.27;1.07;;;;;;;;;;5031521;28;20218;-72
2021/11/21 10:18:27;;;;;;;7.70;1.83;;;;;;;;;;5031102;28;20234;-73
2021/11/21 10:20:53;;;;;;;5.07;1.57;;;;;;;;;;5030227;28;20220;-73
2021/11/21 10:23:21;;;;;;;9.80;1.70;;;;;;;;;;5032342;28;20712;-72
2021/11/21 10:25:51;;;;;;;5.23;1.57;;;;;;;;;;5031177;28;20218;-73
2021/11/21 10:28:21;;;;;;;9.10;1.60;;;;;;;;;;5031009;28;20572;-73
2021/11/21 10:30:59;;;;;;;13.10;1.60;;;;;;;;;;5030667;28;20306;-72
2021/11/21 10:33:29;;;;;;;9.00;1.73;;;;;;;;;;5029722;28;20288;-73
2021/11/21 10:35:58;;;;;;;8.37;1.83;;;;;;;;;;5032392;28;20221;-72
2021/11/21 10:38:32;;;;;;;8.10;1.57;;;;;;;;;;5030334;28;20224;-73
2021/11/21 10:40:59;;;;;;;5.20;1.57;;;;;;;;;;5031269;28;20327;-72
2021/11/21 10:43:25;;;;;;;7.33;2.03;;;;;;;;;;5030040;28;20747;-72
2021/11/21 10:45:52;;;;;;;9.13;1.43;;;;;;;;;;5029630;28;20214;-72
2021/11/21 10:48:25;;;;;;;4.40;1.10;;;;;;;;;;5031390;28;20746;-72
2021/11/21 10:50:54;;;;;;;10.50;1.47;;;;;;;;;;5031871;28;20311;-73
2021/11/21 10:53:22;;;;;;;6.67;1.40;;;;;;;;;;5031026;28;20553;-73
2021/11/21 10:56:10;;;;;;;6.90;1.23;;;;;;;;;;5031017;28;20236;-72
2021/11/21 10:58:44;;;;;;;10.23;1.73;;;;;;;;;;5030319;28;20304;-73
2021/11/21 11:01:19;;;;;;;5.23;1.80;;;;;;;;;;5029747;28;20207;-73
2021/11/21 11:04:06;;;;;;;3.10;1.03;;;;;;;;;;5030379;28;20225;-73
2021/11/21 11:06:34;;;;;;;5.00;1.23;;;;;;;;;;5028532;28;20202;-73
2021/11/21 11:09:14;;;;;;;7.27;1.60;;;;;;;;;;5028152;28;20206;-73
2021/11/21 11:11:41;;;;;;;7.50;1.47;;;;;;;;;;5029851;28;20542;-73
2021/11/21 11:14:07;;;;;;;8.13;1.40;;;;;;;;;;5029338;28;20539;-73
2021/11/21 11:16:34;;;;;;;6.40;1.50;;;;;;;;;;5031051;28;20384;-74
2021/11/21 11:19:02;;;;;;;4.50;1.17;;;;;;;;;;5029414;28;20237;-73
2021/11/21 11:21:29;;;;;;;4.73;1.60;;;;;;;;;;5028595;28;20214;-73
2021/11/21 11:23:57;;;;;;;8.60;1.50;;;;;;;;;;5030351;28;20230;-73
2021/11/21 11:26:25;;;;;;;5.83;1.23;;;;;;;;;;5030276;28;20271;-73
2021/11/21 11:28:56;;;;;;;5.63;1.43;;;;;;;;;;5028968;28;20221;-73
2021/11/21 11:31:25;;;;;;;6.40;1.30;;;;;;;;;;5030517;28;21253;-73
2021/11/21 11:33:53;;;;;;;13.57;2.17;;;;;;;;;;5028773;28;20422;-74
2021/11/21 11:36:21;;;;;;;5.40;1.30;;;;;;;;;;5029790;28;20241;-73
2021/11/21 11:39:01;;;;;;;5.30;0.90;;;;;;;;;;5030002;28;20264;-74
2021/11/21 11:41:28;;;;;;;4.83;1.17;;;;;;;;;;5027780;28;20209;-73
2021/11/21 11:43:57;;;;;;;6.60;1.00;;;;;;;;;;5028523;28;20230;-73
2021/11/21 11:49:03;;;;;;;5.73;0.90;;;;;;;;;;5267007;22;20957;-75
2021/11/21 11:51:53;;;;;;;2.47;0.73;;;;;;;;;;5015355;28;20217;-73
2021/11/21 11:54:26;;;;;;;5.40;1.30;;;;;;;;;;5018158;28;20239;-72
2021/11/21 11:56:56;;;;;;;5.20;0.83;;;;;;;;;;5016160;28;20305;-73
2021/11/21 11:59:29;;;;;;;4.17;0.97;;;;;;;;;;5016685;28;20673;-72
2021/11/21 12:02:03;;;;;;;8.03;2.13;;;;;;;;;;5016574;28;20197;-72
2021/11/21 12:04:50;;;;;;;7.53;1.50;;;;;;;;;;5015755;28;20228;-72
2021/11/21 12:07:41;;;;;;;6.87;1.33;;;;;;;;;;5017234;28;20214;-72
2021/11/21 12:10:13;;;;;;;6.20;1.53;;;;;;;;;;5015286;28;20221;-73
2021/11/21 12:13:08;;;;;;;4.67;2.67;;;;;;;;;;5016938;28;20897;-73
2021/11/21 12:15:59;;;;;;;4.97;1.40;;;;;;;;;;5016180;28;20380;-73
2021/11/21 12:18:54;;;;;;;11.37;1.73;;;;;;;;;;5015796;28;20352;-73
2021/11/21 12:21:45;;;;;;;8.03;1.23;;;;;;;;;;5009828;28;20688;-73
2021/11/21 12:24:27;;;;;;;11.73;1.53;;;;;;;;;;5016122;28;20222;-73
2021/11/21 12:26:56;;;;;;;4.43;1.30;;;;;;;;;;5016540;28;20226;-73
2021/11/21 12:29:29;;;;;;;6.87;1.70;;;;;;;;;;5016401;28;20217;-75
2021/11/21 12:32:19;;;;;;;5.23;1.30;;;;;;;;;;5016322;28;20682;-72
2021/11/21 12:34:46;;;;;;;5.90;1.20;;;;;;;;;;5016671;28;20204;-73
2021/11/21 12:37:15;;;;;;;9.13;1.40;;;;;;;;;;5019490;28;20261;-73
2021/11/21 12:39:44;;;;;;;3.67;1.00;;;;;;;;;;5020245;28;20261;-73
2021/11/21 12:42:13;;;;;;;5.60;0.93;;;;;;;;;;5018846;28;20221;-74
2021/11/21 12:44:40;;;;;;;4.87;1.00;;;;;;;;;;5019914;28;20598;-74
2021/11/21 12:47:09;;;;;;;5.17;1.00;;;;;;;;;;5019128;28;20210;-74
2021/11/21 12:49:36;;;;;;;5.33;1.00;;;;;;;;;;5019280;28;20680;-74
2021/11/21 12:52:05;;;;;;;3.57;1.07;;;;;;;;;;5020185;28;20551;-74
2021/11/21 12:54:32;;;;;;;4.63;0.97;;;;;;;;;;5017779;28;20215;-73
2021/11/21 12:56:58;;;;;;;5.97;1.10;;;;;;;;;;5019519;28;20212;-73
2021/11/21 12:59:48;;;;;;;6.33;1.30;;;;;;;;;;5019285;28;20433;-73
2021/11/21 13:02:15;;;;;;;5.23;1.00;;;;;;;;;;5020327;28;21138;-73
2021/11/21 13:04:57;;;;;;;6.00;1.63;;;;;;;;;;5018778;28;20226;-73
2021/11/21 13:07:26;;;;;;;4.63;0.90;;;;;;;;;;5019545;28;20214;-74
2021/11/21 13:10:00;;;;;;;9.57;1.23;;;;;;;;;;5018851;28;20980;-74
2021/11/21 13:12:28;;;;;;;4.70;1.50;;;;;;;;;;5019243;28;20998;-74
2021/11/21 13:14:59;;;;;;;5.30;1.37;;;;;;;;;;5019734;28;20205;-73
2021/11/21 13:17:26;;;;;;;3.17;0.87;;;;;;;;;;5018061;28;20234;-74
2021/11/21 13:20:05;;;;;;;5.43;1.10;;;;;;;;;;5019746;28;20284;-74
2021/11/21 13:22:53;;;;;;;4.60;1.00;;;;;;;;;;5018446;28;20214;-74
2021/11/21 13:25:58;;;;;;;8.43;0.87;;;;;;;;;;5019687;28;20218;-74
2021/11/21 13:28:40;;;;;;;3.97;1.07;;;;;;;;;;4967748;28;20294;-74
2021/11/21 13:31:12;;;;;;;5.87;0.80;;;;;;;;;;5019006;28;20217;-74
2021/11/21 13:33:41;;;;;;;4.00;1.00;;;;;;;;;;5018237;28;21226;-74
2021/11/21 13:36:14;;;;;;;2.43;0.83;;;;;;;;;;5018994;28;20350;-74
2021/11/21 13:38:41;;;;;;;3.27;0.73;;;;;;;;;;5019104;28;20658;-74
2021/11/21 13:41:09;;;;;;;4.47;1.17;;;;;;;;;;5017947;28;20222;-73
2021/11/21 13:43:44;;;;;;;3.90;0.77;;;;;;;;;;5017893;28;20359;-74
2021/11/21 13:46:13;;;;;;;4.67;0.93;;;;;;;;;;5017485;28;20309;-74
2021/11/21 13:48:41;;;;;;;1.83;0.50;;;;;;;;;;5017914;28;20359;-74
2021/11/21 13:51:25;;;;;;;6.73;1.33;;;;;;;;;;5018327;28;20696;-73
2021/11/21 13:53:51;;;;;;;5.90;0.90;;;;;;;;;;5017982;28;20209;-75
2021/11/21 13:56:19;;;;;;;4.13;0.80;;;;;;;;;;5019201;28;20678;-74
2021/11/21 13:58:47;;;;;;;8.90;1.47;;;;;;;;;;5018129;28;20817;-74
2021/11/21 14:01:18;;;;;;;8.47;1.33;;;;;;;;;;5019727;28;20213;-74
2021/11/21 14:03:45;;;;;;;4.13;1.20;;;;;;;;;;5018216;28;20312;-74
2021/11/21 14:06:15;;;;;;;5.73;1.00;;;;;;;;;;5020429;28;20287;-74
2021/11/21 14:08:47;;;;;;;6.33;1.53;;;;;;;;;;5017375;28;20270;-74
2021/11/21 14:11:14;;;;;;;7.77;1.03;;;;;;;;;;5019578;28;20287;-74
2021/11/21 14:13:47;;;;;;;3.20;0.60;;;;;;;;;;5017808;28;20214;-74
2021/11/21 14:16:17;;;;;;;5.00;1.00;;;;;;;;;;5018787;28;20209;-74
2021/11/21 14:18:47;;;;;;;7.80;1.50;;;;;;;;;;5018119;28;20312;-74
2021/11/21 14:21:20;;;;;;;5.50;0.90;;;;;;;;;;5018797;28;20217;-74
2021/11/21 14:23:48;;;;;;;5.60;1.37;;;;;;;;;;5018820;28;20216;-74
2021/11/21 14:26:16;;;;;;;6.83;1.33;;;;;;;;;;5018224;28;20231;-74
2021/11/21 14:28:46;;;;;;;6.13;1.40;;;;;;;;;;5018369;28;20229;-74
2021/11/21 14:31:18;;;;;;;6.87;1.57;;;;;;;;;;5018598;28;20271;-74
2021/11/21 14:33:47;;;;;;;6.50;1.50;;;;;;;;;;5018741;28;20236;-74
2021/11/21 14:36:16;;;;;;;8.83;1.57;;;;;;;;;;5017077;28;20235;-73
2021/11/21 14:39:01;;;;;;;7.87;1.70;;;;;;;;;;5018622;28;20212;-74
2021/11/21 14:41:31;;;;;;;7.60;1.97;;;;;;;;;;5017886;28;20219;-74
2021/11/21 14:43:57;;;;;;;5.57;1.70;;;;;;;;;;5018472;28;20213;-74
2021/11/21 14:46:27;;;;;;;6.83;1.97;;;;;;;;;;5018147;28;20287;-74
2021/11/21 14:48:55;;;;;;;7.87;1.70;;;;;;;;;;5018340;28;20248;-74